Gambrills, MD (21054)

3:01 AM EDT on September 27, 2016 (GMT -0400)
Canter Farms I | | Change Station
Active Advisory: Coastal Flood Advisory

Elev 148 ft 39.04 °N, 76.67 °W | Updated 22 seconds ago

Overcast
Overcast
66.9 °F
Feels Like 66.9 °F
N
0.0
Wind Variable Wind from South
Gusts 0.0 mph

Today
High -- | Low -- °F
--% Chance of Precip.
Yesterday
High -- | Low -- °F
Precip. -- in
Pressure 29.98 in
Visibility 2.5 miles
Clouds Mostly Cloudy 1700 ft
Mostly Cloudy 2400 ft
Overcast 4100 ft
Dew Point 58 °F
Humidity 73%
Rainfall 0.00 in
Snow Depth Not available.
6:59 AM 6:54 PM
Waning Crescent, 13% visible
METAR KFME 270654Z AUTO 00000KT 2 1/2SM BKN017 BKN024 OVC041 17/16 A2998 RMK AO1
Pressure 29.98 in
Visibility 2.5 miles
Clouds Mostly Cloudy 1700 ft
Mostly Cloudy 2400 ft
Overcast 4100 ft
Dew Point 58 °F
Humidity 73%
Rainfall 0.00 in
Snow Depth Not available.
6:59 AM 6:54 PM
Waning Crescent, 13% visible
METAR KFME 270654Z AUTO 00000KT 2 1/2SM BKN017 BKN024 OVC041 17/16 A2998 RMK AO1

10-Day Weather Forecast

Almanac

Astronomy

Sep. 27, 2016 Rise Set
Actual Time
Civil Twilight
Nautical Twilight
Astronomical Twilight
Moon
Length of Visible Light
Length of Day
Tomorrow will be .
, % of the Moon is Illuminated

Today's Extremes

State Highs State Lows

Community

WunderPhotos

Upload Photos

1,942,040 photos uploaded!

WunderBlog® & News

Nearby

Air Quality

  Air Quality AQ Index Pollutant
Not available.

Snow Depth

Station Depth Elevation

Earthquake Activity

City Distance Mag. Time & Date
Minimum magnitude displayed is 2.5.

Coastal Water Temperatures

Place Temperature

Stations

Nearby Weather Stations

Station Location Temp. Windchill Dew Point Humidity Wind Precip. Elev Updated Type
                   

Watches & Warnings

Coastal Flood Advisory
Issued: 1:21 AM EDT Sep. 27, 2016 – National Weather Service

... Coastal Flood Advisory remains in effect until 8 am EDT this
morning...

* tidal anomaly... one half foot to one foot above normal.

* Timing... around time of high tide overnight. High tide at
Annapolis is at 3:23 am.

* Expected impacts... low lying shoreline inundation.

Precautionary/preparedness actions...

A coastal Flood Advisory indicates that onshore winds and tides
will combine to generate flooding of low areas along the shore.



All tide heights are relative to mean lower low water.
Time of high total tides are approximate to the nearest hour.

Annapolis MD
minor 2.4 ft, moderate 3.3 ft, major 6.0 ft

               total astro
   day/time tide tide anomaly flood
                /ft/ /ft/ /ft/ category
---------- ------- ------- ------- --------
   27/03 am 2.7 1.7 1.0 minor
   27/03 PM 1.7 1.3 0.4 none
   28/04 am 2.1 1.6 0.5 none
   28/04 PM 2.0 1.4 0.6 none
   29/05 am 2.3 1.6 0.7 none
   29/05 PM 2.2 1.4 0.8 none